Time;durP1;ratioP1;P1;durP2;ratioP2;P2;SDS_P1;SDS_P2;PMS_P1;PMS_P2;Temp;Humidity;BMP_temperature;BMP_pressure;BME280_temperature;BME280_humidity;BME280_pressure;Samples;Min_cycle;Max_cycle;Signal;HPM_P1;HPM_P2
2024/01/20 00:02:17;;;;;;;3.90;3.53;;;;;;;2.59;100.00;101851.72;6095196;29;20228;-69
2024/01/20 00:05:38;;;;;;;3.97;2.97;;;;;;;2.57;100.00;101858.91;6100699;29;20236;-68
2024/01/20 00:08:59;;;;;;;5.07;3.33;;;;;;;2.61;100.00;101871.16;6111352;29;20240;-69
2024/01/20 00:12:20;;;;;;;8.60;4.50;;;;;;;2.61;100.00;101859.69;6099434;29;20259;-68
2024/01/20 00:15:41;;;;;;;4.73;3.23;;;;;;;2.58;100.00;101865.09;6104838;29;20232;-69
2024/01/20 00:19:03;;;;;;;2.93;2.70;;;;;;;2.57;100.00;101863.38;6108521;29;20247;-69
2024/01/20 00:22:24;;;;;;;3.43;3.13;;;;;;;2.60;100.00;101856.16;6094013;29;20224;-70
2024/01/20 00:25:45;;;;;;;9.23;3.27;;;;;;;2.60;100.00;101866.78;6114617;29;20247;-70
2024/01/20 00:29:06;;;;;;;3.80;3.40;;;;;;;2.57;100.00;101864.25;6105347;29;20228;-69
2024/01/20 00:32:27;;;;;;;8.87;5.10;;;;;;;2.54;100.00;101855.53;6107097;29;20236;-70
2024/01/20 00:35:49;;;;;;;9.63;4.33;;;;;;;2.55;100.00;101875.88;6105332;28;20824;-69
2024/01/20 00:39:10;;;;;;;5.87;3.10;;;;;;;2.50;100.00;101899.16;6110880;29;20297;-69
2024/01/20 00:42:31;;;;;;;4.17;3.00;;;;;;;2.51;100.00;101875.13;6105899;29;20323;-69
2024/01/20 00:45:52;;;;;;;4.97;3.70;;;;;;;2.47;100.00;101910.78;6104280;29;20240;-69
2024/01/20 00:49:13;;;;;;;5.20;3.93;;;;;;;2.50;100.00;101880.53;6102202;29;20610;-69
2024/01/20 00:52:35;;;;;;;4.77;4.33;;;;;;;2.50;100.00;101897.38;6102264;29;20271;-70
2024/01/20 00:55:56;;;;;;;4.77;4.20;;;;;;;2.43;100.00;101896.72;6110456;29;20240;-68
2024/01/20 00:59:17;;;;;;;7.53;4.27;;;;;;;2.46;100.00;101902.84;6107963;29;20311;-68
2024/01/20 01:02:38;;;;;;;5.87;3.53;;;;;;;2.47;100.00;101905.44;6104575;29;20522;-69
2024/01/20 01:05:59;;;;;;;5.43;4.90;;;;;;;2.50;100.00;101899.16;6107443;29;20232;-69
2024/01/20 01:09:21;;;;;;;3.80;3.40;;;;;;;2.51;100.00;101908.84;6106576;29;20235;-69
2024/01/20 01:12:42;;;;;;;3.00;2.50;;;;;;;2.52;100.00;101926.56;6104853;29;20227;-68
2024/01/20 01:16:04;;;;;;;4.47;4.07;;;;;;;2.53;100.00;101928.28;6101612;29;20240;-69
2024/01/20 01:19:24;;;;;;;6.80;3.20;;;;;;;2.54;100.00;101924.72;6111098;29;20236;-68
2024/01/20 01:22:45;;;;;;;5.13;3.93;;;;;;;2.53;100.00;101936.25;6097252;29;20574;-69
2024/01/20 01:26:07;;;;;;;4.03;3.70;;;;;;;2.51;100.00;101925.69;6079865;29;20228;-68
2024/01/20 01:29:28;;;;;;;4.33;3.93;;;;;;;2.54;100.00;101946.00;6117606;29;20258;-68
2024/01/20 01:32:49;;;;;;;5.57;3.90;;;;;;;2.55;100.00;101935.28;6097442;29;20256;-68
2024/01/20 01:36:10;;;;;;;3.77;3.10;;;;;;;2.49;100.00;101934.66;6104198;29;20236;-68
2024/01/20 01:39:32;;;;;;;7.03;3.30;;;;;;;2.52;100.00;101942.53;6097241;29;20227;-68
2024/01/20 01:42:56;;;;;;;6.93;4.53;;;;;;;2.50;100.00;101955.03;6102946;29;20243;-69
2024/01/20 01:46:17;;;;;;;4.70;4.30;;;;;;;2.49;100.00;101948.81;6095768;29;20548;-69
2024/01/20 01:49:38;;;;;;;5.10;4.60;;;;;;;2.51;100.00;101949.63;6104602;29;20243;-69
2024/01/20 01:52:59;;;;;;;4.23;3.37;;;;;;;2.47;100.00;101950.69;6104956;29;20228;-69
2024/01/20 01:56:21;;;;;;;5.40;4.00;;;;;;;2.46;100.00;101964.94;6110513;29;20231;-69
2024/01/20 01:59:45;;;;;;;5.30;4.63;;;;;;;2.46;100.00;101956.94;6116269;29;20319;-69
2024/01/20 02:03:08;;;;;;;4.50;4.10;;;;;;;2.39;100.00;101960.75;6105205;29;20563;-69
2024/01/20 02:06:28;;;;;;;5.97;4.40;;;;;;;2.35;100.00;101954.69;6111644;29;20236;-69
2024/01/20 02:09:49;;;;;;;5.80;5.30;;;;;;;2.30;100.00;101961.09;6122588;29;20961;-69
2024/01/20 02:13:11;;;;;;;8.00;5.63;;;;;;;2.27;100.00;101962.06;6116567;29;20236;-68
2024/01/20 02:16:33;;;;;;;6.93;5.50;;;;;;;2.29;100.00;101984.19;6095597;28;20235;-68
2024/01/20 02:19:54;;;;;;;6.23;4.90;;;;;;;2.25;100.00;101984.34;6122926;29;20517;-68
2024/01/20 02:23:16;;;;;;;8.37;6.47;;;;;;;2.26;100.00;101981.63;6107772;29;20232;-68
2024/01/20 02:26:37;;;;;;;7.83;5.40;;;;;;;2.28;100.00;101998.38;6112722;29;20545;-68
2024/01/20 02:29:58;;;;;;;12.33;5.90;;;;;;;2.29;100.00;101994.81;6117199;29;20263;-68
2024/01/20 02:33:19;;;;;;;5.53;5.03;;;;;;;2.26;100.00;102016.19;6104739;29;20235;-68
2024/01/20 02:36:40;;;;;;;10.63;5.23;;;;;;;2.24;100.00;101988.78;6091905;29;20224;-69
2024/01/20 02:40:03;;;;;;;9.37;5.87;;;;;;;2.28;100.00;101987.75;6115980;28;20227;-69
2024/01/20 02:43:24;;;;;;;8.13;5.93;;;;;;;2.23;100.00;101986.19;6114962;29;20239;-69
2024/01/20 02:46:45;;;;;;;9.10;6.33;;;;;;;2.22;100.00;101985.31;6105867;29;20236;-69
2024/01/20 02:50:07;;;;;;;6.73;5.40;;;;;;;2.20;100.00;101989.81;6113243;29;20235;-69
2024/01/20 02:53:28;;;;;;;5.70;5.20;;;;;;;2.21;100.00;101991.56;6116289;29;20232;-69
2024/01/20 02:56:50;;;;;;;6.57;4.97;;;;;;;2.20;100.00;101995.16;6112698;29;20231;-69
2024/01/20 03:00:12;;;;;;;6.97;6.27;;;;;;;2.20;100.00;101989.81;6108916;29;20232;-69
2024/01/20 03:03:33;;;;;;;8.37;7.60;;;;;;;2.25;100.00;101990.50;6112706;29;20626;-69
2024/01/20 03:06:53;;;;;;;6.43;5.43;;;;;;;2.23;100.00;101991.53;6103980;29;20243;-68
2024/01/20 03:10:15;;;;;;;7.77;6.83;;;;;;;2.24;100.00;101991.44;6105191;29;20252;-68
2024/01/20 03:13:37;;;;;;;7.10;5.93;;;;;;;2.27;100.00;101995.81;6115239;29;20342;-68
2024/01/20 03:16:58;;;;;;;5.13;4.27;;;;;;;2.26;100.00;102010.88;6109596;29;20247;-69
2024/01/20 03:20:18;;;;;;;11.03;7.23;;;;;;;2.30;100.00;102009.84;6111071;29;20219;-69
2024/01/20 03:23:43;;;;;;;6.50;5.90;;;;;;;2.31;100.00;102008.06;6108786;29;20954;-70
2024/01/20 03:27:04;;;;;;;6.37;5.57;;;;;;;2.28;100.00;101998.38;6111081;29;20244;-69
2024/01/20 03:30:26;;;;;;;7.73;6.33;;;;;;;2.29;100.00;102012.56;6106654;29;21032;-70
2024/01/20 03:33:47;;;;;;;7.77;6.90;;;;;;;2.29;100.00;101999.28;6109376;29;20273;-69
2024/01/20 03:37:08;;;;;;;7.20;5.67;;;;;;;2.23;100.00;102000.34;6111059;29;20232;-69
2024/01/20 03:40:29;;;;;;;7.23;6.63;;;;;;;2.26;100.00;102012.66;6105206;28;20248;-69
2024/01/20 03:43:50;;;;;;;9.53;6.90;;;;;;;2.21;100.00;102019.97;6118260;29;20231;-67
2024/01/20 03:47:12;;;;;;;8.17;6.93;;;;;;;2.19;100.00;102017.34;6100045;29;20621;-68
2024/01/20 03:50:33;;;;;;;9.63;6.87;;;;;;;2.21;100.00;102027.94;6104343;29;20610;-69
2024/01/20 03:53:54;;;;;;;18.27;8.33;;;;;;;2.16;100.00;102016.59;6117845;29;20244;-69
2024/01/20 03:57:15;;;;;;;7.50;5.80;;;;;;;2.13;100.00;102041.50;6110240;29;20238;-69
2024/01/20 04:00:36;;;;;;;9.63;8.63;;;;;;;2.12;100.00;102029.13;6108492;29;20247;-69
2024/01/20 04:03:58;;;;;;;11.73;9.23;;;;;;;2.09;100.00;102025.69;6113851;29;20587;-68
2024/01/20 04:07:19;;;;;;;8.27;6.80;;;;;;;2.10;100.00;102040.75;6100735;29;20651;-68
2024/01/20 04:10:40;;;;;;;12.47;8.80;;;;;;;2.09;100.00;102047.84;6103306;29;20334;-69
2024/01/20 04:14:01;;;;;;;8.37;7.57;;;;;;;2.11;100.00;102038.03;6113941;29;20232;-69
2024/01/20 04:17:22;;;;;;;9.90;8.50;;;;;;;2.13;100.00;102062.78;6106779;28;20231;-69
2024/01/20 04:20:44;;;;;;;10.00;9.07;;;;;;;2.13;100.00;102053.91;6105960;29;20595;-69
2024/01/20 04:24:05;;;;;;;8.77;7.73;;;;;;;2.17;100.00;102061.72;6113011;29;20234;-68
2024/01/20 04:27:26;;;;;;;11.63;9.37;;;;;;;2.24;100.00;102070.38;6108434;29;20236;-68
2024/01/20 04:30:47;;;;;;;11.53;7.97;;;;;;;2.12;100.00;102069.03;6096547;29;20239;-68
2024/01/20 04:34:08;;;;;;;12.33;9.77;;;;;;;2.16;100.00;102068.00;6117722;29;20613;-69
2024/01/20 04:37:30;;;;;;;11.90;8.07;;;;;;;2.13;100.00;102101.78;6111131;29;20227;-69
2024/01/20 04:40:52;;;;;;;9.67;8.77;;;;;;;2.16;100.00;102069.78;6102576;29;20231;-69
2024/01/20 04:44:13;;;;;;;10.23;9.07;;;;;;;2.17;100.00;102066.22;6115549;29;20236;-69
2024/01/20 04:47:34;;;;;;;10.47;9.43;;;;;;;2.16;100.00;102070.66;6100581;29;20255;-70
2024/01/20 04:50:55;;;;;;;10.97;9.87;;;;;;;2.15;100.00;102066.25;6099304;29;20251;-69
2024/01/20 04:54:17;;;;;;;10.83;9.73;;;;;;;2.14;100.00;102082.25;6111277;29;20232;-69
2024/01/20 04:57:38;;;;;;;10.43;8.83;;;;;;;2.11;100.00;102083.22;6103586;29;20232;-68
2024/01/20 05:00:59;;;;;;;7.23;6.50;;;;;;;2.14;100.00;102090.25;6097449;29;20239;-68
2024/01/20 05:04:20;;;;;;;9.73;8.77;;;;;;;2.14;100.00;102085.81;6115451;28;20231;-68
2024/01/20 05:07:41;;;;;;;11.30;10.17;;;;;;;2.08;100.00;102088.66;6106125;29;20251;-68
2024/01/20 05:11:04;;;;;;;9.67;8.63;;;;;;;2.06;100.00;102085.19;6102139;29;20240;-69
2024/01/20 05:14:25;;;;;;;11.67;10.33;;;;;;;2.05;100.00;102087.88;6114664;29;20239;-68
2024/01/20 05:17:46;;;;;;;13.63;10.77;;;;;;;2.04;100.00;102096.81;6068185;29;1050143;-69
2024/01/20 05:21:13;;;;;;;19.37;12.43;;;;;;;2.03;100.00;102101.25;6099087;29;20259;-69
2024/01/20 05:24:33;;;;;;;9.67;7.97;;;;;;;1.98;100.00;102095.19;6115580;29;20319;-68
2024/01/20 05:27:56;;;;;;;10.97;9.90;;;;;;;1.97;100.00;102100.56;6088400;29;20317;-69
2024/01/20 05:31:17;;;;;;;28.37;9.70;;;;;;;1.94;100.00;102098.03;6103179;29;20239;-68
2024/01/20 05:34:38;;;;;;;10.23;9.07;;;;;;;1.90;100.00;102101.72;6081257;29;20231;-68
2024/01/20 05:37:59;;;;;;;15.27;11.17;;;;;;;1.86;100.00;102116.88;6110036;29;20232;-69
2024/01/20 05:41:20;;;;;;;10.87;9.53;;;;;;;1.81;100.00;102112.66;6113801;29;20232;-68
2024/01/20 05:44:42;;;;;;;9.73;8.73;;;;;;;1.82;100.00;102117.03;6122371;29;20236;-70
2024/01/20 05:48:03;;;;;;;9.27;8.33;;;;;;;1.80;100.00;102119.75;6103394;29;20232;-69
2024/01/20 05:51:25;;;;;;;10.57;9.63;;;;;;;1.78;100.00;102112.75;6111801;29;20247;-69
2024/01/20 05:54:46;;;;;;;15.47;10.93;;;;;;;1.75;100.00;102120.81;6110681;29;20228;-69
2024/01/20 05:58:06;;;;;;;11.00;9.93;;;;;;;1.74;100.00;102129.72;6114592;29;20223;-69
2024/01/20 06:01:29;;;;;;;14.20;9.77;;;;;;;1.73;100.00;102131.53;6102631;29;20246;-69
2024/01/20 06:04:50;;;;;;;13.33;8.23;;;;;;;1.72;100.00;102131.53;6115065;29;20232;-70
2024/01/20 06:08:11;;;;;;;10.40;9.40;;;;;;;1.78;100.00;102128.69;6110193;29;20224;-69
2024/01/20 06:11:32;;;;;;;13.90;10.70;;;;;;;1.78;100.00;102134.88;6101636;29;20243;-69
2024/01/20 06:14:53;;;;;;;9.27;8.30;;;;;;;1.81;100.00;102133.91;6117654;29;20228;-69
2024/01/20 06:18:15;;;;;;;9.57;8.63;;;;;;;1.78;100.00;102147.28;6112474;29;20239;-69
2024/01/20 06:21:36;;;;;;;8.70;7.97;;;;;;;1.82;100.00;102138.28;6108800;29;20228;-69
2024/01/20 06:24:57;;;;;;;11.17;8.30;;;;;;;1.75;100.00;102145.63;6120933;29;20232;-68
2024/01/20 06:28:18;;;;;;;11.67;10.17;;;;;;;1.78;100.00;102141.97;6098716;29;20239;-69
2024/01/20 06:31:39;;;;;;;8.83;8.13;;;;;;;1.76;100.00;102155.31;6095704;29;20240;-69
2024/01/20 06:35:01;;;;;;;17.43;12.07;;;;;;;1.72;100.00;102152.81;6114139;29;21096;-70
2024/01/20 06:38:22;;;;;;;11.53;10.33;;;;;;;1.72;100.00;102150.16;6102107;29;20227;-69
2024/01/20 06:41:45;;;;;;;10.47;9.53;;;;;;;1.77;100.00;102165.06;6112255;29;20236;-69
2024/01/20 06:45:06;;;;;;;8.30;7.60;;;;;;;1.66;100.00;102160.97;6109174;29;20231;-69
2024/01/20 06:48:32;;;;;;;10.30;9.30;;;;;;;1.63;100.00;102156.63;6112742;29;20232;-69
2024/01/20 06:51:54;;;;;;;11.50;10.30;;;;;;;1.59;100.00;102160.28;6106101;29;20244;-69
2024/01/20 06:55:16;;;;;;;10.73;9.63;;;;;;;1.56;100.00;102147.97;6117158;29;20728;-69
2024/01/20 06:58:37;;;;;;;9.17;8.23;;;;;;;1.52;100.00;102166.72;6113323;29;20236;-69
2024/01/20 07:01:58;;;;;;;11.70;10.50;;;;;;;1.50;100.00;102149.97;6092230;29;20514;-69
2024/01/20 07:05:19;;;;;;;11.67;9.63;;;;;;;1.50;100.00;102155.28;6106274;29;20598;-69
2024/01/20 07:08:42;;;;;;;10.20;8.73;;;;;;;1.48;100.00;102152.66;6093434;29;20322;-69
2024/01/20 07:12:03;;;;;;;8.93;8.17;;;;;;;1.45;100.00;102157.19;6102964;29;20255;-68
2024/01/20 07:15:23;;;;;;;14.60;9.10;;;;;;;1.47;100.00;102161.56;6113601;28;20803;-69
2024/01/20 07:18:44;;;;;;;12.93;11.77;;;;;;;1.45;100.00;102154.53;6112379;29;20247;-69
2024/01/20 07:22:05;;;;;;;11.43;10.43;;;;;;;1.44;100.00;102153.66;6100169;28;20227;-68
2024/01/20 07:25:28;;;;;;;12.30;10.70;;;;;;;1.44;100.00;102161.63;6105094;28;20278;-68
2024/01/20 07:28:49;;;;;;;13.37;12.07;;;;;;;1.45;100.00;102179.34;6115522;29;20227;-69
2024/01/20 07:32:11;;;;;;;13.43;9.87;;;;;;;1.47;100.00;102174.84;6101938;29;20236;-68
2024/01/20 07:35:32;;;;;;;12.30;11.00;;;;;;;1.44;100.00;102190.00;6106784;29;20228;-70
2024/01/20 07:38:52;;;;;;;11.83;9.77;;;;;;;1.46;100.00;102181.06;6115941;29;20504;-69
2024/01/20 07:42:15;;;;;;;19.13;11.70;;;;;;;1.43;100.00;102191.78;6103350;29;20331;-69
2024/01/20 07:45:36;;;;;;;13.70;10.63;;;;;;;1.45;100.00;102189.97;6095631;29;20236;-69
2024/01/20 07:48:56;;;;;;;12.77;11.50;;;;;;;1.47;100.00;102193.44;6108838;29;20860;-70
2024/01/20 07:52:18;;;;;;;17.37;12.53;;;;;;;1.52;100.00;102203.94;6086325;29;20240;-70
2024/01/20 07:55:39;;;;;;;14.07;12.63;;;;;;;1.49;100.00;102204.88;6116489;29;20223;-70
2024/01/20 07:59:01;;;;;;;11.83;10.50;;;;;;;1.51;100.00;102224.31;6104024;29;20322;-69
2024/01/20 08:02:22;;;;;;;12.47;9.20;;;;;;;1.52;100.00;102239.31;6096330;29;20760;-69
2024/01/20 08:05:45;;;;;;;13.70;11.13;;;;;;;1.49;100.00;102249.19;6105056;29;20240;-70
2024/01/20 08:09:06;;;;;;;10.23;8.53;;;;;;;1.54;100.00;102233.97;6117558;29;20236;-69
2024/01/20 08:12:27;;;;;;;11.80;10.37;;;;;;;1.59;100.00;102227.59;6108510;29;20246;-70
2024/01/20 08:15:49;;;;;;;12.83;10.43;;;;;;;1.61;100.00;102247.03;6093543;29;20947;-70
2024/01/20 08:19:10;;;;;;;16.53;11.60;;;;;;;1.61;100.00;102241.72;6110370;29;20235;-68
2024/01/20 08:22:31;;;;;;;10.77;9.67;;;;;;;1.68;100.00;102255.69;6104794;28;20231;-69
2024/01/20 08:25:52;;;;;;;15.17;11.23;;;;;;;1.70;100.00;102251.19;6106783;29;20227;-69
2024/01/20 08:29:13;;;;;;;16.07;12.43;;;;;;;1.84;100.00;102264.06;6116764;29;20231;-69
2024/01/20 08:32:35;;;;;;;12.87;10.23;;;;;;;1.97;100.00;102270.75;6096561;28;20227;-69
2024/01/20 08:35:56;;;;;;;14.57;10.23;;;;;;;2.21;100.00;102265.50;6100008;29;20240;-69
2024/01/20 08:39:18;;;;;;;12.37;9.77;;;;;;;2.93;100.00;102261.31;6114039;29;20239;-69
2024/01/20 08:42:39;;;;;;;12.57;10.40;;;;;;;3.62;100.00;102265.88;6103777;29;20240;-70
2024/01/20 08:46:00;;;;;;;15.30;9.63;;;;;;;3.73;100.00;102263.69;6110669;29;20322;-70
2024/01/20 08:49:24;;;;;;;17.80;11.77;;;;;;;2.76;100.00;102272.53;6112964;29;20231;-69
2024/01/20 08:52:45;;;;;;;17.70;12.37;;;;;;;2.65;100.00;102281.84;6095351;28;20271;-69
2024/01/20 08:56:07;;;;;;;14.30;10.43;;;;;;;3.17;100.00;102287.09;6109392;29;20228;-69
2024/01/20 08:59:28;;;;;;;17.03;12.43;;;;;;;3.13;100.00;102298.75;6107979;28;20278;-69
2024/01/20 09:02:50;;;;;;;12.90;11.60;;;;;;;2.46;100.00;102288.69;6087034;28;20690;-69
2024/01/20 09:06:13;;;;;;;13.27;10.70;;;;;;;2.47;100.00;102296.59;6102934;29;20935;-68
2024/01/20 09:09:34;;;;;;;14.43;10.53;;;;;;;2.71;100.00;102310.91;6111734;29;20231;-69
2024/01/20 09:12:54;;;;;;;13.37;11.17;;;;;;;5.81;100.00;102305.50;6105164;29;20259;-69
2024/01/20 09:16:15;;;;;;;13.13;10.73;;;;;;;5.89;100.00;102298.00;6097410;28;20236;-69
2024/01/20 09:19:36;;;;;;;19.30;11.87;;;;;;;3.51;100.00;102316.91;6108786;28;20254;-69
2024/01/20 09:22:58;;;;;;;20.63;10.43;;;;;;;4.76;100.00;102311.06;6107776;29;20231;-69
2024/01/20 09:26:19;;;;;;;12.63;9.03;;;;;;;4.69;100.00;102318.47;6095773;28;20235;-68
2024/01/20 09:29:40;;;;;;;12.90;8.57;;;;;;;4.46;100.00;102326.56;6114926;29;20251;-68
2024/01/20 09:33:01;;;;;;;12.10;9.73;;;;;;;5.11;100.00;102330.97;6093208;29;20235;-69
2024/01/20 09:36:21;;;;;;;12.27;11.10;;;;;;;4.93;100.00;102326.38;6105928;29;20235;-68
2024/01/20 09:39:44;;;;;;;17.60;12.13;;;;;;;3.57;100.00;102337.13;6106254;29;20240;-69
2024/01/20 09:43:05;;;;;;;14.90;11.43;;;;;;;3.23;100.00;102356.16;6112410;29;20878;-69
2024/01/20 09:46:26;;;;;;;11.67;8.83;;;;;;;4.48;100.00;102350.53;6100213;29;20598;-69
2024/01/20 09:49:47;;;;;;;17.47;13.00;;;;;;;6.31;100.00;102356.69;6104506;29;20266;-68
2024/01/20 09:53:14;;;;;;;13.23;9.47;;;;;;;4.96;100.00;102345.84;6108810;29;20231;-69
2024/01/20 09:56:36;;;;;;;12.93;8.93;;;;;;;5.35;100.00;102349.47;6103771;29;20235;-69
2024/01/20 09:59:58;;;;;;;11.87;9.13;;;;;;;5.28;100.00;102341.78;6115540;29;20247;-68
2024/01/20 10:03:21;;;;;;;14.97;11.33;;;;;;;6.79;100.00;102348.09;6101634;29;20251;-69
2024/01/20 10:06:42;;;;;;;16.47;13.63;;;;;;;6.84;100.00;102335.34;6100133;29;20243;-69
2024/01/20 10:10:03;;;;;;;12.87;10.37;;;;;;;5.88;100.00;102347.13;6085280;29;20244;-68
2024/01/20 10:13:26;;;;;;;14.80;9.83;;;;;;;6.42;100.00;102333.78;6106828;29;20256;-68
2024/01/20 10:16:49;;;;;;;16.40;11.70;;;;;;;7.63;100.00;102340.13;6096624;29;20228;-68
2024/01/20 10:20:18;;;;;;;19.17;11.57;;;;;;;8.40;100.00;102350.19;6106194;29;20346;-70
2024/01/20 10:23:42;;;;;;;15.03;11.30;;;;;;;7.85;100.00;102333.53;6105425;28;20628;-68
2024/01/20 10:27:03;;;;;;;16.20;13.13;;;;;;;7.97;100.00;102348.97;6108744;29;20231;-68
2024/01/20 10:30:26;;;;;;;10.50;9.37;;;;;;;7.95;100.00;102347.31;6103429;29;21269;-68
2024/01/20 10:33:48;;;;;;;18.23;10.33;;;;;;;8.90;100.00;102341.06;6107808;29;20613;-68
2024/01/20 10:37:11;;;;;;;12.30;10.60;;;;;;;8.19;100.00;102356.72;6107296;29;20242;-69
2024/01/20 10:40:33;;;;;;;17.53;10.47;;;;;;;8.35;100.00;102351.41;6106271;29;20235;-69
2024/01/20 10:44:01;;;;;;;14.93;11.57;;;;;;;5.71;100.00;102356.81;6116618;29;20236;-69
2024/01/20 10:47:33;;;;;;;12.10;9.23;;;;;;;5.23;100.00;102359.84;6100032;29;20724;-69
2024/01/20 10:50:58;;;;;;;11.53;10.30;;;;;;;5.84;100.00;102360.72;6104873;29;20235;-69
2024/01/20 10:54:20;;;;;;;10.03;9.03;;;;;;;5.22;100.00;102361.63;6109088;29;20243;-69
2024/01/20 10:57:41;;;;;;;14.30;9.63;;;;;;;6.52;100.00;102352.13;6103831;29;20243;-68
2024/01/20 11:01:05;;;;;;;14.03;10.23;;;;;;;5.13;100.00;102343.31;6092343;29;20561;-71
2024/01/20 11:04:33;;;;;;;34.37;10.17;;;;;;;4.91;100.00;102365.66;6097027;29;20761;-69
2024/01/20 11:07:59;;;;;;;14.00;10.70;;;;;;;5.11;100.00;102363.88;6087337;29;20255;-68
2024/01/20 11:11:20;;;;;;;18.10;11.43;;;;;;;4.73;100.00;102375.31;6102603;29;20227;-69
2024/01/20 11:14:50;;;;;;;10.63;8.03;;;;;;;4.96;100.00;102359.22;6101213;29;20248;-69
2024/01/20 11:18:18;;;;;;;14.03;9.37;;;;;;;5.83;100.00;102350.91;6070767;29;20236;-70
2024/01/20 11:21:40;;;;;;;15.03;9.03;;;;;;;5.62;100.00;102353.63;6102002;29;20271;-69
2024/01/20 11:25:06;;;;;;;16.57;9.13;;;;;;;5.15;100.00;102368.19;6110292;29;20235;-69
2024/01/20 11:28:31;;;;;;;14.17;10.13;;;;;;;6.38;100.00;102364.34;6104191;29;20319;-68
2024/01/20 11:31:52;;;;;;;8.67;7.77;;;;;;;6.43;100.00;102353.41;6093136;29;20232;-69
2024/01/20 11:35:13;;;;;;;17.10;9.27;;;;;;;7.56;100.00;102366.44;6106604;29;20327;-70
2024/01/20 11:38:37;;;;;;;11.20;7.63;;;;;;;5.49;100.00;102364.91;6104023;29;20843;-69
2024/01/20 11:42:01;;;;;;;10.77;8.17;;;;;;;5.27;100.00;102361.44;6117742;29;20240;-69
2024/01/20 11:45:22;;;;;;;13.53;11.13;;;;;;;5.28;100.00;102360.50;6109550;29;20314;-69
2024/01/20 11:48:43;;;;;;;20.00;9.73;;;;;;;7.34;100.00;102363.13;6117677;28;20243;-69
2024/01/20 11:52:05;;;;;;;14.03;8.30;;;;;;;7.89;100.00;102353.91;6093898;28;20240;-69
2024/01/20 11:55:27;;;;;;;12.87;7.43;;;;;;;9.99;100.00;102356.78;6100719;29;20264;-70
2024/01/20 11:58:48;;;;;;;13.60;8.83;;;;;;;9.78;100.00;102341.97;6102066;29;20609;-69
2024/01/20 12:02:09;;;;;;;13.53;8.50;;;;;;;7.63;100.00;102367.84;6105765;29;20240;-69
2024/01/20 12:05:32;;;;;;;11.13;8.60;;;;;;;7.12;100.00;102371.41;6104489;29;20235;-68
2024/01/20 12:08:52;;;;;;;14.70;9.37;;;;;;;6.08;100.00;102387.22;6100059;29;20304;-69
2024/01/20 12:12:15;;;;;;;12.50;9.00;;;;;;;5.40;100.00;102370.69;6111888;29;20243;-69
2024/01/20 12:15:36;;;;;;;11.93;9.50;;;;;;;5.13;100.00;102371.84;6101563;29;20359;-69
2024/01/20 12:18:57;;;;;;;10.53;8.30;;;;;;;4.59;100.00;102386.53;6106301;28;20235;-68
2024/01/20 12:22:18;;;;;;;12.20;8.77;;;;;;;4.45;100.00;102370.19;6104041;29;20244;-68
2024/01/20 12:25:39;;;;;;;12.53;9.60;;;;;;;4.42;100.00;102375.63;6105542;29;20227;-70
2024/01/20 12:29:01;;;;;;;14.17;9.93;;;;;;;4.52;100.00;102374.38;6106561;29;20330;-69
2024/01/20 12:32:22;;;;;;;11.47;10.30;;;;;;;4.75;100.00;102384.13;6098143;29;20233;-69
2024/01/20 12:35:43;;;;;;;13.60;11.17;;;;;;;4.44;100.00;102372.94;6106954;29;20516;-69
2024/01/20 12:39:05;;;;;;;10.40;8.47;;;;;;;4.77;100.00;102379.59;6110377;29;20595;-68
2024/01/20 12:42:26;;;;;;;9.77;8.37;;;;;;;4.69;100.00;102379.03;6108015;29;20511;-69
2024/01/20 12:45:48;;;;;;;10.40;8.83;;;;;;;4.66;100.00;102373.81;6092267;28;20334;-68
2024/01/20 12:49:10;;;;;;;10.10;9.03;;;;;;;5.05;100.00;102352.59;6108034;29;20236;-69
2024/01/20 12:52:31;;;;;;;11.20;7.60;;;;;;;4.59;100.00;102380.34;6108131;29;20246;-68
2024/01/20 12:55:52;;;;;;;10.73;7.97;;;;;;;5.04;100.00;102373.13;6087529;28;20240;-68
2024/01/20 12:59:13;;;;;;;10.67;9.60;;;;;;;5.79;100.00;102368.03;6109146;28;20601;-70
2024/01/20 13:02:35;;;;;;;15.80;9.20;;;;;;;5.84;100.00;102360.72;6098521;28;20239;-69
2024/01/20 13:05:56;;;;;;;10.97;9.00;;;;;;;5.44;100.00;102358.91;6099046;29;20232;-68
2024/01/20 13:09:18;;;;;;;10.67;8.50;;;;;;;5.47;100.00;102361.44;6106557;29;20851;-68
2024/01/20 13:12:39;;;;;;;12.97;9.63;;;;;;;5.55;100.00;102368.19;6101968;29;20228;-73
2024/01/20 13:16:00;;;;;;;14.47;9.17;;;;;;;5.43;100.00;102373.19;6095896;29;20617;-69
2024/01/20 13:19:23;;;;;;;11.80;8.67;;;;;;;6.26;100.00;102364.06;6104664;28;20231;-69
2024/01/20 13:22:44;;;;;;;10.87;8.10;;;;;;;5.81;100.00;102372.38;6101999;29;20231;-69
2024/01/20 13:26:05;;;;;;;17.27;10.93;;;;;;;5.86;100.00;102374.88;6103626;29;20235;-70
2024/01/20 13:29:26;;;;;;;13.43;9.27;;;;;;;5.58;100.00;102376.09;6114725;29;20235;-68
2024/01/20 13:32:47;;;;;;;11.03;9.20;;;;;;;5.57;100.00;102392.19;6100654;29;20223;-70
2024/01/20 13:36:09;;;;;;;12.10;9.07;;;;;;;5.26;100.00;102399.78;6098488;29;20251;-70
2024/01/20 13:39:30;;;;;;;13.73;10.00;;;;;;;5.35;100.00;102396.72;6113819;29;20242;-70
2024/01/20 13:42:51;;;;;;;13.43;11.17;;;;;;;5.32;100.00;102403.06;6105854;29;20231;-70
2024/01/20 13:46:13;;;;;;;12.03;10.17;;;;;;;5.32;100.00;102407.56;6101829;29;20223;-69
2024/01/20 13:49:34;;;;;;;11.67;8.70;;;;;;;4.71;100.00;102409.22;6105326;29;20315;-69
2024/01/20 13:52:57;;;;;;;11.73;8.30;;;;;;;5.11;100.00;102411.16;6092364;29;20240;-70
2024/01/20 13:56:18;;;;;;;13.40;9.03;;;;;;;4.77;100.00;102404.50;6090539;29;20323;-70
2024/01/20 13:59:39;;;;;;;12.97;11.30;;;;;;;4.74;100.00;102415.31;6105793;29;20236;-70
2024/01/20 14:03:00;;;;;;;14.63;10.53;;;;;;;4.68;100.00;102433.38;6091751;29;20236;-70
2024/01/20 14:06:21;;;;;;;11.60;10.53;;;;;;;4.53;100.00;102431.28;6102351;29;20236;-70
2024/01/20 14:09:43;;;;;;;7.90;6.97;;;;;;;4.55;100.00;102443.66;6111862;29;20257;-70
2024/01/20 14:13:05;;;;;;;13.93;8.37;;;;;;;4.27;100.00;102447.44;6110007;29;20334;-69
2024/01/20 14:16:28;;;;;;;12.60;10.17;;;;;;;4.44;100.00;102445.03;6100187;29;20630;-70
2024/01/20 14:19:49;;;;;;;12.33;8.37;;;;;;;4.22;100.00;102452.06;6106377;29;20311;-70
2024/01/20 14:23:10;;;;;;;13.67;9.07;;;;;;;4.43;100.00;102453.94;6106310;29;20232;-71
2024/01/20 14:26:32;;;;;;;13.77;11.13;;;;;;;4.30;100.00;102450.88;6103307;29;20523;-69
2024/01/20 14:29:54;;;;;;;14.03;9.77;;;;;;;4.20;100.00;102459.28;6108553;29;20236;-70
2024/01/20 14:33:16;;;;;;;13.20;10.27;;;;;;;4.34;100.00;102463.16;6103965;29;20827;-70
2024/01/20 14:36:37;;;;;;;12.13;10.60;;;;;;;4.35;100.00;102469.38;6108292;29;20584;-70
2024/01/20 14:39:58;;;;;;;18.93;11.23;;;;;;;4.15;100.00;102472.81;6106231;29;20263;-70
2024/01/20 14:43:20;;;;;;;13.47;12.00;;;;;;;4.33;100.00;102476.56;6112848;29;20262;-71
2024/01/20 14:46:41;;;;;;;13.47;9.43;;;;;;;4.25;100.00;102476.00;6088828;29;20248;-69
2024/01/20 14:50:04;;;;;;;17.90;11.90;;;;;;;4.23;100.00;102481.41;6113715;29;20232;-71
2024/01/20 14:53:25;;;;;;;13.37;10.87;;;;;;;3.89;100.00;102484.41;6103666;29;20247;-70
2024/01/20 14:56:46;;;;;;;11.50;10.20;;;;;;;3.88;100.00;102490.66;6116474;29;20246;-71
2024/01/20 15:00:10;;;;;;;11.27;9.90;;;;;;;3.74;100.00;102492.06;6102329;29;20232;-69
2024/01/20 15:03:31;;;;;;;15.10;11.97;;;;;;;3.74;100.00;102492.94;6111933;29;20284;-70
2024/01/20 15:06:52;;;;;;;13.67;10.83;;;;;;;3.57;100.00;102508.63;6106492;29;20235;-69
2024/01/20 15:10:13;;;;;;;19.37;10.90;;;;;;;3.52;100.00;102515.94;6094670;29;20232;-70
2024/01/20 15:13:34;;;;;;;16.23;12.20;;;;;;;3.54;100.00;102518.53;6117329;29;20234;-70
2024/01/20 15:16:56;;;;;;;11.83;10.10;;;;;;;3.45;100.00;102516.16;6105114;29;20235;-70
2024/01/20 15:20:17;;;;;;;15.80;11.73;;;;;;;3.44;100.00;102514.44;6105228;28;20271;-70
2024/01/20 15:23:41;;;;;;;10.70;9.57;;;;;;;3.39;100.00;102524.38;6096791;28;20248;-73
2024/01/20 15:27:02;;;;;;;12.80;10.67;;;;;;;3.38;100.00;102530.63;6099661;29;20331;-68